sensor_id;sensor_type;location;lat;lon;timestamp;temperature;humidity
78694;SHT31;68029;51.978;5.646;2024-02-15T00:02:08;13.9;82.5
78694;SHT31;68029;51.978;5.646;2024-02-15T00:04:36;13.9;82.5
78694;SHT31;68029;51.978;5.646;2024-02-15T00:07:05;13.9;82.4
78694;SHT31;68029;51.978;5.646;2024-02-15T00:09:34;13.9;82.4
78694;SHT31;68029;51.978;5.646;2024-02-15T00:12:03;13.9;82.3
78694;SHT31;68029;51.978;5.646;2024-02-15T00:14:31;14.0;82.3
78694;SHT31;68029;51.978;5.646;2024-02-15T00:17:00;14.0;82.1
78694;SHT31;68029;51.978;5.646;2024-02-15T00:19:28;14.0;82.0
78694;SHT31;68029;51.978;5.646;2024-02-15T00:21:57;14.0;82.1
78694;SHT31;68029;51.978;5.646;2024-02-15T00:24:26;14.0;82.1
78694;SHT31;68029;51.978;5.646;2024-02-15T00:26:54;14.0;82.1
78694;SHT31;68029;51.978;5.646;2024-02-15T00:29:22;14.0;82.1
78694;SHT31;68029;51.978;5.646;2024-02-15T00:31:55;14.0;82.0
78694;SHT31;68029;51.978;5.646;2024-02-15T00:34:24;14.0;82.0
78694;SHT31;68029;51.978;5.646;2024-02-15T00:36:53;14.0;82.1
78694;SHT31;68029;51.978;5.646;2024-02-15T00:39:22;14.0;82.1
78694;SHT31;68029;51.978;5.646;2024-02-15T00:41:51;14.0;82.1
78694;SHT31;68029;51.978;5.646;2024-02-15T00:44:20;14.0;82.1
78694;SHT31;68029;51.978;5.646;2024-02-15T00:46:49;14.0;82.1
78694;SHT31;68029;51.978;5.646;2024-02-15T00:49:17;14.0;82.2
78694;SHT31;68029;51.978;5.646;2024-02-15T00:51:47;14.0;82.3
78694;SHT31;68029;51.978;5.646;2024-02-15T00:54:15;13.9;82.4
78694;SHT31;68029;51.978;5.646;2024-02-15T00:56:44;13.9;82.5
78694;SHT31;68029;51.978;5.646;2024-02-15T00:59:15;13.9;82.6
78694;SHT31;68029;51.978;5.646;2024-02-15T01:01:44;13.9;82.7
78694;SHT31;68029;51.978;5.646;2024-02-15T01:04:15;13.9;82.7
78694;SHT31;68029;51.978;5.646;2024-02-15T01:06:44;13.9;82.7
78694;SHT31;68029;51.978;5.646;2024-02-15T01:09:12;13.9;82.7
78694;SHT31;68029;51.978;5.646;2024-02-15T01:11:41;13.9;82.7
78694;SHT31;68029;51.978;5.646;2024-02-15T01:14:10;13.9;82.7
78694;SHT31;68029;51.978;5.646;2024-02-15T01:16:40;13.9;82.7
78694;SHT31;68029;51.978;5.646;2024-02-15T01:19:10;13.9;82.7
78694;SHT31;68029;51.978;5.646;2024-02-15T01:21:38;13.9;82.7
78694;SHT31;68029;51.978;5.646;2024-02-15T01:24:09;13.9;82.8
78694;SHT31;68029;51.978;5.646;2024-02-15T01:26:37;13.8;82.9
78694;SHT31;68029;51.978;5.646;2024-02-15T01:29:06;13.8;82.9
78694;SHT31;68029;51.978;5.646;2024-02-15T01:31:39;13.8;82.9
78694;SHT31;68029;51.978;5.646;2024-02-15T01:34:07;13.8;82.8
78694;SHT31;68029;51.978;5.646;2024-02-15T01:36:37;13.8;82.8
78694;SHT31;68029;51.978;5.646;2024-02-15T01:39:06;13.8;83.0
78694;SHT31;68029;51.978;5.646;2024-02-15T01:41:36;13.8;83.0
78694;SHT31;68029;51.978;5.646;2024-02-15T01:44:05;13.8;83.0
78694;SHT31;68029;51.978;5.646;2024-02-15T01:46:34;13.8;83.0
78694;SHT31;68029;51.978;5.646;2024-02-15T01:49:04;13.8;83.0
78694;SHT31;68029;51.978;5.646;2024-02-15T01:51:36;13.8;83.0
78694;SHT31;68029;51.978;5.646;2024-02-15T01:54:05;13.8;83.0
78694;SHT31;68029;51.978;5.646;2024-02-15T01:56:35;13.8;83.0
78694;SHT31;68029;51.978;5.646;2024-02-15T01:59:06;13.8;82.9
78694;SHT31;68029;51.978;5.646;2024-02-15T02:01:35;13.8;82.9
78694;SHT31;68029;51.978;5.646;2024-02-15T02:04:05;13.8;82.8
78694;SHT31;68029;51.978;5.646;2024-02-15T02:06:36;13.8;82.8
78694;SHT31;68029;51.978;5.646;2024-02-15T02:09:06;13.8;82.8
78694;SHT31;68029;51.978;5.646;2024-02-15T02:11:36;13.8;82.8
78694;SHT31;68029;51.978;5.646;2024-02-15T02:14:04;13.8;82.7
78694;SHT31;68029;51.978;5.646;2024-02-15T02:16:33;13.8;82.7
78694;SHT31;68029;51.978;5.646;2024-02-15T02:19:02;13.8;82.8
78694;SHT31;68029;51.978;5.646;2024-02-15T02:21:35;13.8;82.8
78694;SHT31;68029;51.978;5.646;2024-02-15T02:24:13;13.8;82.9
78694;SHT31;68029;51.978;5.646;2024-02-15T02:26:43;13.8;82.8
78694;SHT31;68029;51.978;5.646;2024-02-15T02:29:12;13.8;82.8
78694;SHT31;68029;51.978;5.646;2024-02-15T02:31:41;13.8;82.7
78694;SHT31;68029;51.978;5.646;2024-02-15T02:34:10;13.8;82.6
78694;SHT31;68029;51.978;5.646;2024-02-15T02:36:43;13.8;82.4
78694;SHT31;68029;51.978;5.646;2024-02-15T02:39:14;13.8;82.3
78694;SHT31;68029;51.978;5.646;2024-02-15T02:41:45;13.8;82.2
78694;SHT31;68029;51.978;5.646;2024-02-15T02:44:13;13.8;82.1
78694;SHT31;68029;51.978;5.646;2024-02-15T02:46:43;13.8;82.0
78694;SHT31;68029;51.978;5.646;2024-02-15T02:49:12;13.8;82.0
78694;SHT31;68029;51.978;5.646;2024-02-15T02:51:40;13.8;81.9
78694;SHT31;68029;51.978;5.646;2024-02-15T02:54:09;13.8;81.9
78694;SHT31;68029;51.978;5.646;2024-02-15T02:56:37;13.8;81.9
78694;SHT31;68029;51.978;5.646;2024-02-15T02:59:08;13.8;82.0
78694;SHT31;68029;51.978;5.646;2024-02-15T03:01:36;13.7;82.0
78694;SHT31;68029;51.978;5.646;2024-02-15T03:04:06;13.7;81.9
78694;SHT31;68029;51.978;5.646;2024-02-15T03:06:34;13.7;82.0
78694;SHT31;68029;51.978;5.646;2024-02-15T03:09:03;13.7;82.0
78694;SHT31;68029;51.978;5.646;2024-02-15T03:11:33;13.7;81.9
78694;SHT31;68029;51.978;5.646;2024-02-15T03:14:02;13.7;82.0
78694;SHT31;68029;51.978;5.646;2024-02-15T03:16:31;13.8;81.9
78694;SHT31;68029;51.978;5.646;2024-02-15T03:19:00;13.8;81.8
78694;SHT31;68029;51.978;5.646;2024-02-15T03:21:32;13.8;81.8
78694;SHT31;68029;51.978;5.646;2024-02-15T03:24:00;13.8;81.7
78694;SHT31;68029;51.978;5.646;2024-02-15T03:26:33;13.8;81.5
78694;SHT31;68029;51.978;5.646;2024-02-15T03:29:05;13.8;81.4
78694;SHT31;68029;51.978;5.646;2024-02-15T03:31:35;13.8;81.4
78694;SHT31;68029;51.978;5.646;2024-02-15T03:34:05;13.8;81.4
78694;SHT31;68029;51.978;5.646;2024-02-15T03:36:37;13.8;81.4
78694;SHT31;68029;51.978;5.646;2024-02-15T03:39:05;13.8;81.4
78694;SHT31;68029;51.978;5.646;2024-02-15T03:41:36;13.7;81.4
78694;SHT31;68029;51.978;5.646;2024-02-15T03:44:04;13.7;81.4
78694;SHT31;68029;51.978;5.646;2024-02-15T03:46:35;13.7;81.5
78694;SHT31;68029;51.978;5.646;2024-02-15T03:49:03;13.7;81.6
78694;SHT31;68029;51.978;5.646;2024-02-15T03:51:34;13.7;81.6
78694;SHT31;68029;51.978;5.646;2024-02-15T03:54:03;13.7;81.5
78694;SHT31;68029;51.978;5.646;2024-02-15T03:56:31;13.7;81.6
78694;SHT31;68029;51.978;5.646;2024-02-15T03:59:00;13.7;81.5
78694;SHT31;68029;51.978;5.646;2024-02-15T04:01:31;13.7;81.5
78694;SHT31;68029;51.978;5.646;2024-02-15T04:04:00;13.6;81.5
78694;SHT31;68029;51.978;5.646;2024-02-15T04:06:29;13.6;81.6
78694;SHT31;68029;51.978;5.646;2024-02-15T04:09:00;13.6;81.5
78694;SHT31;68029;51.978;5.646;2024-02-15T04:11:28;13.6;81.5
78694;SHT31;68029;51.978;5.646;2024-02-15T04:13:58;13.6;81.5
78694;SHT31;68029;51.978;5.646;2024-02-15T04:16:26;13.6;81.6
78694;SHT31;68029;51.978;5.646;2024-02-15T04:18:56;13.6;81.7
78694;SHT31;68029;51.978;5.646;2024-02-15T04:21:25;13.6;81.7
78694;SHT31;68029;51.978;5.646;2024-02-15T04:23:53;13.6;81.8
78694;SHT31;68029;51.978;5.646;2024-02-15T04:26:22;13.6;81.8
78694;SHT31;68029;51.978;5.646;2024-02-15T04:28:53;13.6;81.9
78694;SHT31;68029;51.978;5.646;2024-02-15T04:31:23;13.6;81.9
78694;SHT31;68029;51.978;5.646;2024-02-15T04:33:53;13.6;81.8
78694;SHT31;68029;51.978;5.646;2024-02-15T04:36:22;13.6;81.7
78694;SHT31;68029;51.978;5.646;2024-02-15T04:38:52;13.6;81.7
78694;SHT31;68029;51.978;5.646;2024-02-15T04:41:21;13.6;81.8
78694;SHT31;68029;51.978;5.646;2024-02-15T04:43:50;13.6;81.8
78694;SHT31;68029;51.978;5.646;2024-02-15T04:46:20;13.6;81.8
78694;SHT31;68029;51.978;5.646;2024-02-15T04:48:51;13.6;81.8
78694;SHT31;68029;51.978;5.646;2024-02-15T04:51:21;13.6;81.8
78694;SHT31;68029;51.978;5.646;2024-02-15T04:53:49;13.6;81.9
78694;SHT31;68029;51.978;5.646;2024-02-15T04:56:18;13.6;82.1
78694;SHT31;68029;51.978;5.646;2024-02-15T04:58:49;13.6;82.2
78694;SHT31;68029;51.978;5.646;2024-02-15T05:01:17;13.6;82.3
78694;SHT31;68029;51.978;5.646;2024-02-15T05:03:46;13.6;82.4
78694;SHT31;68029;51.978;5.646;2024-02-15T05:06:14;13.6;82.5
78694;SHT31;68029;51.978;5.646;2024-02-15T05:08:45;13.6;82.5
78694;SHT31;68029;51.978;5.646;2024-02-15T05:11:13;13.6;82.6
78694;SHT31;68029;51.978;5.646;2024-02-15T05:13:44;13.6;82.5
78694;SHT31;68029;51.978;5.646;2024-02-15T05:16:13;13.6;82.6
78694;SHT31;68029;51.978;5.646;2024-02-15T05:18:42;13.6;82.6
78694;SHT31;68029;51.978;5.646;2024-02-15T05:21:12;13.6;82.6
78694;SHT31;68029;51.978;5.646;2024-02-15T05:23:42;13.6;82.7
78694;SHT31;68029;51.978;5.646;2024-02-15T05:26:13;13.6;82.8
78694;SHT31;68029;51.978;5.646;2024-02-15T05:28:47;13.6;83.0
78694;SHT31;68029;51.978;5.646;2024-02-15T05:31:17;13.6;83.1
78694;SHT31;68029;51.978;5.646;2024-02-15T05:33:52;13.6;83.3
78694;SHT31;68029;51.978;5.646;2024-02-15T05:36:22;13.5;83.5
78694;SHT31;68029;51.978;5.646;2024-02-15T05:38:53;13.5;83.7
78694;SHT31;68029;51.978;5.646;2024-02-15T05:41:23;13.5;83.8
78694;SHT31;68029;51.978;5.646;2024-02-15T05:43:52;13.5;83.9
78694;SHT31;68029;51.978;5.646;2024-02-15T05:46:21;13.5;83.9
78694;SHT31;68029;51.978;5.646;2024-02-15T05:48:50;13.5;84.0
78694;SHT31;68029;51.978;5.646;2024-02-15T05:51:19;13.5;83.9
78694;SHT31;68029;51.978;5.646;2024-02-15T05:53:48;13.5;84.0
78694;SHT31;68029;51.978;5.646;2024-02-15T05:56:20;13.5;83.9
78694;SHT31;68029;51.978;5.646;2024-02-15T05:58:48;13.5;83.9
78694;SHT31;68029;51.978;5.646;2024-02-15T06:01:16;13.5;84.0
78694;SHT31;68029;51.978;5.646;2024-02-15T06:03:45;13.5;84.1
78694;SHT31;68029;51.978;5.646;2024-02-15T06:06:14;13.4;84.2
78694;SHT31;68029;51.978;5.646;2024-02-15T06:08:47;13.4;84.3
78694;SHT31;68029;51.978;5.646;2024-02-15T06:11:19;13.4;84.5
78694;SHT31;68029;51.978;5.646;2024-02-15T06:13:48;13.4;84.7
78694;SHT31;68029;51.978;5.646;2024-02-15T06:16:17;13.4;84.7
78694;SHT31;68029;51.978;5.646;2024-02-15T06:18:48;13.4;84.7
78694;SHT31;68029;51.978;5.646;2024-02-15T06:21:17;13.4;84.7
78694;SHT31;68029;51.978;5.646;2024-02-15T06:23:47;13.4;84.5
78694;SHT31;68029;51.978;5.646;2024-02-15T06:26:17;13.4;84.4
78694;SHT31;68029;51.978;5.646;2024-02-15T06:28:49;13.4;84.4
78694;SHT31;68029;51.978;5.646;2024-02-15T06:31:34;13.4;84.4
78694;SHT31;68029;51.978;5.646;2024-02-15T06:34:18;13.4;84.3
78694;SHT31;68029;51.978;5.646;2024-02-15T06:37:03;13.4;84.3
78694;SHT31;68029;51.978;5.646;2024-02-15T06:39:48;13.4;84.3
78694;SHT31;68029;51.978;5.646;2024-02-15T06:42:18;13.4;84.4
78694;SHT31;68029;51.978;5.646;2024-02-15T06:44:48;13.4;84.4
78694;SHT31;68029;51.978;5.646;2024-02-15T06:47:16;13.4;84.3
78694;SHT31;68029;51.978;5.646;2024-02-15T06:49:47;13.4;84.3
78694;SHT31;68029;51.978;5.646;2024-02-15T06:52:18;13.4;84.3
78694;SHT31;68029;51.978;5.646;2024-02-15T06:54:47;13.5;84.2
78694;SHT31;68029;51.978;5.646;2024-02-15T06:57:17;13.5;84.2
78694;SHT31;68029;51.978;5.646;2024-02-15T06:59:48;13.5;84.1
78694;SHT31;68029;51.978;5.646;2024-02-15T07:02:18;13.5;84.1
78694;SHT31;68029;51.978;5.646;2024-02-15T07:04:49;13.5;84.1
78694;SHT31;68029;51.978;5.646;2024-02-15T07:07:18;13.5;84.1
78694;SHT31;68029;51.978;5.646;2024-02-15T07:09:48;13.5;84.1
78694;SHT31;68029;51.978;5.646;2024-02-15T07:12:17;13.5;83.9
78694;SHT31;68029;51.978;5.646;2024-02-15T07:14:47;13.5;83.8
78694;SHT31;68029;51.978;5.646;2024-02-15T07:17:16;13.6;83.9
78694;SHT31;68029;51.978;5.646;2024-02-15T07:19:46;13.6;83.8
78694;SHT31;68029;51.978;5.646;2024-02-15T07:22:15;13.6;83.8
78694;SHT31;68029;51.978;5.646;2024-02-15T07:24:44;13.6;83.9
78694;SHT31;68029;51.978;5.646;2024-02-15T07:27:13;13.6;83.8
78694;SHT31;68029;51.978;5.646;2024-02-15T07:29:41;13.6;83.8
78694;SHT31;68029;51.978;5.646;2024-02-15T07:32:12;13.6;83.8
78694;SHT31;68029;51.978;5.646;2024-02-15T07:34:43;13.6;83.8
78694;SHT31;68029;51.978;5.646;2024-02-15T07:37:14;13.6;83.7
78694;SHT31;68029;51.978;5.646;2024-02-15T07:39:43;13.7;83.7
78694;SHT31;68029;51.978;5.646;2024-02-15T07:42:13;13.7;83.6
78694;SHT31;68029;51.978;5.646;2024-02-15T07:44:42;13.6;83.7
78694;SHT31;68029;51.978;5.646;2024-02-15T07:47:10;13.6;83.8
78694;SHT31;68029;51.978;5.646;2024-02-15T07:49:39;13.6;84.0
78694;SHT31;68029;51.978;5.646;2024-02-15T07:52:07;13.6;84.2
78694;SHT31;68029;51.978;5.646;2024-02-15T07:54:39;13.5;84.5
78694;SHT31;68029;51.978;5.646;2024-02-15T07:57:07;13.5;84.7
78694;SHT31;68029;51.978;5.646;2024-02-15T07:59:37;13.5;84.8
78694;SHT31;68029;51.978;5.646;2024-02-15T08:02:06;13.4;85.1
78694;SHT31;68029;51.978;5.646;2024-02-15T08:04:34;13.4;85.3
78694;SHT31;68029;51.978;5.646;2024-02-15T08:07:06;13.4;85.4
78694;SHT31;68029;51.978;5.646;2024-02-15T08:09:37;13.4;85.6
78694;SHT31;68029;51.978;5.646;2024-02-15T08:12:06;13.4;85.7
78694;SHT31;68029;51.978;5.646;2024-02-15T08:14:35;13.4;85.7
78694;SHT31;68029;51.978;5.646;2024-02-15T08:17:06;13.4;85.7
78694;SHT31;68029;51.978;5.646;2024-02-15T08:19:34;13.5;85.6
78694;SHT31;68029;51.978;5.646;2024-02-15T08:22:06;13.5;85.6
78694;SHT31;68029;51.978;5.646;2024-02-15T08:24:36;13.5;85.5
78694;SHT31;68029;51.978;5.646;2024-02-15T08:27:04;13.5;85.5
78694;SHT31;68029;51.978;5.646;2024-02-15T08:29:34;13.5;85.5
78694;SHT31;68029;51.978;5.646;2024-02-15T08:32:02;13.6;85.4
78694;SHT31;68029;51.978;5.646;2024-02-15T08:34:34;13.6;85.3
78694;SHT31;68029;51.978;5.646;2024-02-15T08:37:02;13.6;85.3
78694;SHT31;68029;51.978;5.646;2024-02-15T08:39:31;13.6;85.3
78694;SHT31;68029;51.978;5.646;2024-02-15T08:41:59;13.6;85.3
78694;SHT31;68029;51.978;5.646;2024-02-15T08:44:28;13.5;85.4
78694;SHT31;68029;51.978;5.646;2024-02-15T08:46:56;13.5;85.7
78694;SHT31;68029;51.978;5.646;2024-02-15T08:49:24;13.4;85.9
78694;SHT31;68029;51.978;5.646;2024-02-15T08:51:57;13.4;86.3
78694;SHT31;68029;51.978;5.646;2024-02-15T08:54:26;13.3;86.6
78694;SHT31;68029;51.978;5.646;2024-02-15T08:56:54;13.3;86.7
78694;SHT31;68029;51.978;5.646;2024-02-15T08:59:23;13.3;86.9
78694;SHT31;68029;51.978;5.646;2024-02-15T09:01:52;13.2;87.2
78694;SHT31;68029;51.978;5.646;2024-02-15T09:04:21;13.2;87.3
78694;SHT31;68029;51.978;5.646;2024-02-15T09:06:54;13.2;87.5
78694;SHT31;68029;51.978;5.646;2024-02-15T09:09:23;13.2;87.5
78694;SHT31;68029;51.978;5.646;2024-02-15T09:11:51;13.2;87.6
78694;SHT31;68029;51.978;5.646;2024-02-15T09:14:20;13.2;87.7
78694;SHT31;68029;51.978;5.646;2024-02-15T09:16:48;13.1;87.7
78694;SHT31;68029;51.978;5.646;2024-02-15T09:19:17;13.1;87.7
78694;SHT31;68029;51.978;5.646;2024-02-15T09:21:45;13.1;87.9
78694;SHT31;68029;51.978;5.646;2024-02-15T09:24:14;13.1;88.0
78694;SHT31;68029;51.978;5.646;2024-02-15T09:26:43;13.0;88.3
78694;SHT31;68029;51.978;5.646;2024-02-15T09:29:11;13.0;88.5
78694;SHT31;68029;51.978;5.646;2024-02-15T09:31:40;13.0;88.6
78694;SHT31;68029;51.978;5.646;2024-02-15T09:34:09;13.0;88.6
78694;SHT31;68029;51.978;5.646;2024-02-15T09:36:39;13.0;88.7
78694;SHT31;68029;51.978;5.646;2024-02-15T09:39:08;13.0;88.8
78694;SHT31;68029;51.978;5.646;2024-02-15T09:41:40;13.0;88.8
78694;SHT31;68029;51.978;5.646;2024-02-15T09:44:11;13.0;89.1
78694;SHT31;68029;51.978;5.646;2024-02-15T09:46:43;13.0;88.7
78694;SHT31;68029;51.978;5.646;2024-02-15T09:49:14;13.0;88.7
78694;SHT31;68029;51.978;5.646;2024-02-15T09:51:46;13.0;88.6
78694;SHT31;68029;51.978;5.646;2024-02-15T09:54:16;13.0;88.3
78694;SHT31;68029;51.978;5.646;2024-02-15T09:56:50;13.0;88.4
78694;SHT31;68029;51.978;5.646;2024-02-15T09:59:19;13.0;88.3
78694;SHT31;68029;51.978;5.646;2024-02-15T10:01:48;13.0;88.3
78694;SHT31;68029;51.978;5.646;2024-02-15T10:04:19;13.1;88.0
78694;SHT31;68029;51.978;5.646;2024-02-15T10:06:48;13.1;87.8
78694;SHT31;68029;51.978;5.646;2024-02-15T10:09:26;13.1;87.6
78694;SHT31;68029;51.978;5.646;2024-02-15T10:11:58;13.1;87.3
78694;SHT31;68029;51.978;5.646;2024-02-15T10:14:29;13.2;87.3
78694;SHT31;68029;51.978;5.646;2024-02-15T10:17:08;13.2;86.9
78694;SHT31;68029;51.978;5.646;2024-02-15T10:19:37;13.3;86.4
78694;SHT31;68029;51.978;5.646;2024-02-15T10:22:10;13.3;86.3
78694;SHT31;68029;51.978;5.646;2024-02-15T10:24:43;13.4;86.2
78694;SHT31;68029;51.978;5.646;2024-02-15T10:27:12;13.4;86.0
78694;SHT31;68029;51.978;5.646;2024-02-15T10:29:41;13.4;85.8
78694;SHT31;68029;51.978;5.646;2024-02-15T10:32:10;13.5;85.6
78694;SHT31;68029;51.978;5.646;2024-02-15T10:34:43;13.5;85.7
78694;SHT31;68029;51.978;5.646;2024-02-15T10:37:15;13.5;85.6
78694;SHT31;68029;51.978;5.646;2024-02-15T10:39:45;13.5;85.8
78694;SHT31;68029;51.978;5.646;2024-02-15T10:42:17;13.6;85.6
78694;SHT31;68029;51.978;5.646;2024-02-15T10:44:47;13.6;85.2
78694;SHT31;68029;51.978;5.646;2024-02-15T10:47:18;13.6;85.1
78694;SHT31;68029;51.978;5.646;2024-02-15T10:49:49;13.7;84.9
78694;SHT31;68029;51.978;5.646;2024-02-15T10:52:20;13.7;85.0
78694;SHT31;68029;51.978;5.646;2024-02-15T10:55:01;13.7;84.6
78694;SHT31;68029;51.978;5.646;2024-02-15T10:57:33;13.8;84.7
78694;SHT31;68029;51.978;5.646;2024-02-15T11:00:07;13.8;84.8
78694;SHT31;68029;51.978;5.646;2024-02-15T11:02:54;13.9;84.5
78694;SHT31;68029;51.978;5.646;2024-02-15T11:05:25;13.9;83.6
78694;SHT31;68029;51.978;5.646;2024-02-15T11:07:54;13.9;83.9
78694;SHT31;68029;51.978;5.646;2024-02-15T11:10:26;14.0;83.4
78694;SHT31;68029;51.978;5.646;2024-02-15T11:12:55;14.0;83.3
78694;SHT31;68029;51.978;5.646;2024-02-15T11:15:44;14.0;83.2
78694;SHT31;68029;51.978;5.646;2024-02-15T11:18:43;14.1;83.1
78694;SHT31;68029;51.978;5.646;2024-02-15T11:21:20;14.1;83.2
78694;SHT31;68029;51.978;5.646;2024-02-15T11:23:54;14.2;82.9
78694;SHT31;68029;51.978;5.646;2024-02-15T11:26:45;14.2;82.8
78694;SHT31;68029;51.978;5.646;2024-02-15T11:30:01;14.3;82.5
78694;SHT31;68029;51.978;5.646;2024-02-15T11:32:36;14.3;82.6
78694;SHT31;68029;51.978;5.646;2024-02-15T11:35:07;14.4;82.2
78694;SHT31;68029;51.978;5.646;2024-02-15T11:37:54;14.4;81.8
78694;SHT31;68029;51.978;5.646;2024-02-15T11:40:25;14.5;81.5
78694;SHT31;68029;51.978;5.646;2024-02-15T11:42:56;14.5;81.3
78694;SHT31;68029;51.978;5.646;2024-02-15T11:45:27;14.5;81.5
78694;SHT31;68029;51.978;5.646;2024-02-15T11:47:59;14.6;80.9
78694;SHT31;68029;51.978;5.646;2024-02-15T11:50:28;14.6;80.9
78694;SHT31;68029;51.978;5.646;2024-02-15T11:53:04;14.6;81.1
78694;SHT31;68029;51.978;5.646;2024-02-15T11:55:36;14.7;81.4
78694;SHT31;68029;51.978;5.646;2024-02-15T11:58:08;14.7;81.3
78694;SHT31;68029;51.978;5.646;2024-02-15T12:00:45;14.8;80.4
78694;SHT31;68029;51.978;5.646;2024-02-15T12:03:29;14.8;80.1
78694;SHT31;68029;51.978;5.646;2024-02-15T12:06:18;14.9;80.7
78694;SHT31;68029;51.978;5.646;2024-02-15T12:09:03;14.9;80.7
78694;SHT31;68029;51.978;5.646;2024-02-15T12:11:59;15.0;80.9
78694;SHT31;68029;51.978;5.646;2024-02-15T12:14:44;15.1;79.9
78694;SHT31;68029;51.978;5.646;2024-02-15T12:17:28;15.2;79.5
78694;SHT31;68029;51.978;5.646;2024-02-15T12:20:13;15.3;79.1
78694;SHT31;68029;51.978;5.646;2024-02-15T12:22:45;15.4;77.6
78694;SHT31;68029;51.978;5.646;2024-02-15T12:25:17;15.5;78.1
78694;SHT31;68029;51.978;5.646;2024-02-15T12:27:52;15.5;77.5
78694;SHT31;68029;51.978;5.646;2024-02-15T12:30:22;15.6;77.7
78694;SHT31;68029;51.978;5.646;2024-02-15T12:32:52;15.6;77.6
78694;SHT31;68029;51.978;5.646;2024-02-15T12:35:22;15.6;77.7
78694;SHT31;68029;51.978;5.646;2024-02-15T12:38:02;15.7;77.1
78694;SHT31;68029;51.978;5.646;2024-02-15T12:40:34;15.8;76.7
78694;SHT31;68029;51.978;5.646;2024-02-15T12:43:05;15.8;76.8
78694;SHT31;68029;51.978;5.646;2024-02-15T12:45:36;15.9;76.1
78694;SHT31;68029;51.978;5.646;2024-02-15T12:48:07;16.0;75.6
78694;SHT31;68029;51.978;5.646;2024-02-15T12:50:37;16.0;75.5
78694;SHT31;68029;51.978;5.646;2024-02-15T12:53:05;16.1;75.3
78694;SHT31;68029;51.978;5.646;2024-02-15T12:55:36;16.1;74.7
78694;SHT31;68029;51.978;5.646;2024-02-15T12:58:07;16.2;74.9
78694;SHT31;68029;51.978;5.646;2024-02-15T13:00:41;16.2;74.5
78694;SHT31;68029;51.978;5.646;2024-02-15T13:03:12;16.2;74.4
78694;SHT31;68029;51.978;5.646;2024-02-15T13:05:42;16.3;74.9
78694;SHT31;68029;51.978;5.646;2024-02-15T13:08:11;16.3;74.5
78694;SHT31;68029;51.978;5.646;2024-02-15T13:10:41;16.4;73.5
78694;SHT31;68029;51.978;5.646;2024-02-15T13:13:12;16.4;72.4
78694;SHT31;68029;51.978;5.646;2024-02-15T13:15:42;16.4;71.9
78694;SHT31;68029;51.978;5.646;2024-02-15T13:18:11;16.4;71.7
78694;SHT31;68029;51.978;5.646;2024-02-15T13:20:41;16.4;73.0
78694;SHT31;68029;51.978;5.646;2024-02-15T13:23:10;16.4;73.3
78694;SHT31;68029;51.978;5.646;2024-02-15T13:25:48;16.4;72.4
78694;SHT31;68029;51.978;5.646;2024-02-15T13:28:19;16.4;73.4
78694;SHT31;68029;51.978;5.646;2024-02-15T13:30:47;16.5;73.1
78694;SHT31;68029;51.978;5.646;2024-02-15T13:33:16;16.5;72.3
78694;SHT31;68029;51.978;5.646;2024-02-15T13:35:47;16.5;71.5
78694;SHT31;68029;51.978;5.646;2024-02-15T13:38:16;16.5;71.5
78694;SHT31;68029;51.978;5.646;2024-02-15T13:40:49;16.5;71.1
78694;SHT31;68029;51.978;5.646;2024-02-15T13:43:18;16.6;71.1
78694;SHT31;68029;51.978;5.646;2024-02-15T13:45:46;16.6;70.5
78694;SHT31;68029;51.978;5.646;2024-02-15T13:48:15;16.6;71.9
78694;SHT31;68029;51.978;5.646;2024-02-15T13:50:46;16.6;72.2
78694;SHT31;68029;51.978;5.646;2024-02-15T13:53:14;16.6;72.7
78694;SHT31;68029;51.978;5.646;2024-02-15T13:55:44;16.6;71.0
78694;SHT31;68029;51.978;5.646;2024-02-15T13:58:14;16.6;71.2
78694;SHT31;68029;51.978;5.646;2024-02-15T14:00:42;16.7;71.0
78694;SHT31;68029;51.978;5.646;2024-02-15T14:03:11;16.7;71.2
78694;SHT31;68029;51.978;5.646;2024-02-15T14:05:42;16.8;71.2
78694;SHT31;68029;51.978;5.646;2024-02-15T14:08:12;16.9;70.5
78694;SHT31;68029;51.978;5.646;2024-02-15T14:10:41;17.0;69.7
78694;SHT31;68029;51.978;5.646;2024-02-15T14:13:11;17.1;69.5
78694;SHT31;68029;51.978;5.646;2024-02-15T14:15:41;17.2;68.0
78694;SHT31;68029;51.978;5.646;2024-02-15T14:18:11;17.3;70.2
78694;SHT31;68029;51.978;5.646;2024-02-15T14:20:44;17.5;67.9
78694;SHT31;68029;51.978;5.646;2024-02-15T14:23:15;17.7;68.3
78694;SHT31;68029;51.978;5.646;2024-02-15T14:25:44;17.8;67.8
78694;SHT31;68029;51.978;5.646;2024-02-15T14:28:13;17.8;66.5
78694;SHT31;68029;51.978;5.646;2024-02-15T14:30:43;17.9;67.3
78694;SHT31;68029;51.978;5.646;2024-02-15T14:35:18;17.9;66.5
78694;SHT31;68029;51.978;5.646;2024-02-15T14:37:50;18.0;67.4
78694;SHT31;68029;51.978;5.646;2024-02-15T14:40:18;18.0;66.3
78694;SHT31;68029;51.978;5.646;2024-02-15T14:42:47;18.0;66.2
78694;SHT31;68029;51.978;5.646;2024-02-15T14:45:15;18.0;66.2
78694;SHT31;68029;51.978;5.646;2024-02-15T14:47:45;18.0;65.8
78694;SHT31;68029;51.978;5.646;2024-02-15T14:50:13;17.9;66.7
78694;SHT31;68029;51.978;5.646;2024-02-15T14:52:42;17.9;66.6
78694;SHT31;68029;51.978;5.646;2024-02-15T14:55:11;17.8;67.0
78694;SHT31;68029;51.978;5.646;2024-02-15T14:57:39;17.8;67.1
78694;SHT31;68029;51.978;5.646;2024-02-15T15:00:10;17.8;66.6
78694;SHT31;68029;51.978;5.646;2024-02-15T15:02:40;17.7;67.0
78694;SHT31;68029;51.978;5.646;2024-02-15T15:05:10;17.7;66.9
78694;SHT31;68029;51.978;5.646;2024-02-15T15:09:27;17.6;67.6
78694;SHT31;68029;51.978;5.646;2024-02-15T15:12:12;17.5;67.7
78694;SHT31;68029;51.978;5.646;2024-02-15T15:14:57;17.5;68.2
78694;SHT31;68029;51.978;5.646;2024-02-15T15:17:26;17.5;68.0
78694;SHT31;68029;51.978;5.646;2024-02-15T15:19:54;17.5;68.0
78694;SHT31;68029;51.978;5.646;2024-02-15T15:22:23;17.4;68.4
78694;SHT31;68029;51.978;5.646;2024-02-15T15:24:52;17.4;68.7
78694;SHT31;68029;51.978;5.646;2024-02-15T15:27:20;17.4;68.5
78694;SHT31;68029;51.978;5.646;2024-02-15T15:29:49;17.4;68.5
78694;SHT31;68029;51.978;5.646;2024-02-15T15:32:18;17.4;68.5
78694;SHT31;68029;51.978;5.646;2024-02-15T15:34:47;17.4;68.5
78694;SHT31;68029;51.978;5.646;2024-02-15T15:37:15;17.3;68.6
78694;SHT31;68029;51.978;5.646;2024-02-15T15:39:44;17.3;68.6
78694;SHT31;68029;51.978;5.646;2024-02-15T15:42:13;17.3;68.3
78694;SHT31;68029;51.978;5.646;2024-02-15T15:44:41;17.3;68.7
78694;SHT31;68029;51.978;5.646;2024-02-15T15:47:09;17.3;69.2
78694;SHT31;68029;51.978;5.646;2024-02-15T15:49:39;17.3;68.4
78694;SHT31;68029;51.978;5.646;2024-02-15T15:52:07;17.3;68.4
78694;SHT31;68029;51.978;5.646;2024-02-15T15:54:35;17.2;68.3
78694;SHT31;68029;51.978;5.646;2024-02-15T15:57:04;17.2;68.7
78694;SHT31;68029;51.978;5.646;2024-02-15T15:59:33;17.2;68.8
78694;SHT31;68029;51.978;5.646;2024-02-15T16:02:02;17.2;68.6
78694;SHT31;68029;51.978;5.646;2024-02-15T16:04:31;17.2;69.0
78694;SHT31;68029;51.978;5.646;2024-02-15T16:06:59;17.2;69.0
78694;SHT31;68029;51.978;5.646;2024-02-15T16:09:28;17.1;69.0
78694;SHT31;68029;51.978;5.646;2024-02-15T16:11:57;17.1;68.5
78694;SHT31;68029;51.978;5.646;2024-02-15T16:14:25;17.1;68.4
78694;SHT31;68029;51.978;5.646;2024-02-15T16:16:54;17.1;68.9
78694;SHT31;68029;51.978;5.646;2024-02-15T16:19:22;17.0;69.2
78694;SHT31;68029;51.978;5.646;2024-02-15T16:21:51;17.0;68.9
78694;SHT31;68029;51.978;5.646;2024-02-15T16:24:20;17.0;68.7
78694;SHT31;68029;51.978;5.646;2024-02-15T16:26:48;16.9;68.7
78694;SHT31;68029;51.978;5.646;2024-02-15T16:29:17;16.9;68.6